Home   Weather   Spain   Cadiz   Past weeks
Flag for Spain

Past Weather in Cadiz, Cádiz, Spain — June 2016

Currently: 66 °F. Clear. (Weather station: Rota Airport, Spain). See more current weather

June 2016 Weather in Cadiz — Graph

°F

High & Low Weather Summary for June 2016

 TemperatureHumidityPressure
High91 °F (Jun 7, 4:00 pm)100% (Jun 30, 4:00 am)30.21 "Hg (Jun 30, 4:00 am)
Low59 °F (Jun 18, 6:00 am)18% (Jun 21, 4:00 pm)29.83 "Hg (Jun 15, 7:00 pm)
Average72 °F66%30.00 "Hg
* Reported Jun 1 12:00 am — Jun 30 11:00 pm, Cadiz. Weather by CustomWeather, © 2022

Note: Actual official high and low records may vary slightly from our data, if they occured in-between our weather recording intervals... More about our weather records

Cadiz Weather History for June 1, 2016

Scroll right to see more
 ConditionsComfort  
Time TempWeatherWind HumidityBarometerVisibility
12:00 am
Wed, Jun 1
66 °FClear.5 mph78%30.07 "Hg10 mi
1:00 am64 °FClear.2 mph73%30.07 "Hg10 mi
2:00 am64 °FClear.1 mph78%30.07 "Hg10 mi
3:00 am66 °FClear.3 mph73%30.04 "Hg10 mi
4:00 am66 °FPassing clouds.7 mph64%30.04 "HgN/A
5:00 am66 °FClear.6 mph68%30.01 "Hg10 mi
6:00 am61 °FClear.3 mph77%30.01 "Hg10 mi
7:00 am61 °FClear.8 mph72%30.01 "Hg10 mi
8:00 am61 °FClear.3 mph72%30.01 "Hg10 mi
9:00 am68 °FSunny.5 mph60%30.04 "Hg10 mi
10:00 am73 °FPassing clouds.6 mph44%30.04 "HgN/A
11:00 am77 °FPassing clouds.7 mph32%30.04 "HgN/A
12:00 pm79 °FSunny.3 mph32%30.04 "Hg10 mi
1:00 pm82 °FSunny.No wind32%30.04 "Hg10 mi
2:00 pm82 °FPassing clouds.7 mph42%30.01 "HgN/A
3:00 pm86 °FSunny.15 mph29%29.95 "Hg10 mi
4:00 pm82 °FPassing clouds.8 mph40%29.98 "HgN/A
5:00 pm84 °FPassing clouds.6 mph31%29.95 "HgN/A
6:00 pm81 °FSunny.9 mph54%29.95 "Hg10 mi
7:00 pm81 °FPassing clouds.6 mph51%29.95 "HgN/A
8:00 pm77 °FSunny.9 mph54%29.95 "Hg10 mi
9:00 pm75 °FPassing clouds.7 mph61%29.95 "HgN/A
10:00 pm72 °FSunny.3 mph69%29.95 "Hg10 mi
11:00 pm72 °FClear.1 mph69%29.95 "Hg10 mi
Weather by CustomWeather, © 2022

See weather overview